• Join FlightAware (Why Join?)
  • Login
  • US Flag 
 
08:54AM EST


 

Airport Tracker/Info


-or-


 

Live Flight TrackerFlight Track Log ✈ PSC478 ✈ 08-May-2013 ✈ CYQB - CYHU

Flight Track Log - Related Links

Times and Time Zones

All times are in EDT time to prevent confusion due to time zone crossing. See the PSC478 flight status page for this flight to view local times or setup timezone preferences in your user account.

Time Position Orientation Groundspeed Altitude Reporting Facility
EDT Latitude Longitude Course Direction KTS MPH feet Rate Location/Type
08:23PM 46.7667 -71.4500 270° West 140 161 2,900  Level Montreal Center
08:24PM 46.7333 -71.4833 214° Southwest 150 173 4,300 1,560 Climbing Montreal Center
08:25PM 46.6833 -71.5167 205° Southwest 160 184 6,100 1,680 Climbing Montreal Center
08:26PM 46.5430 -71.7254 221° Southwest  Level FlightAware Approximate
08:26PM 46.6833 -71.5667 270° West 160 184 7,700  Level Montreal Center
08:27PM 46.5005 -71.7786 221° Southwest  Level FlightAware Approximate
08:27PM 46.6333 -71.6167 214° Southwest 160 184 9,500  Level Montreal Center
08:28PM 46.6000 -71.6500 214° Southwest 160 184 11,000 1,560 Climbing Montreal Center
08:29PM 46.5667 -71.7000 226° Southwest 170 196 12,700 1,560 Climbing Montreal Center
08:30PM 46.5333 -71.7500 226° Southwest 170 196 14,200 1,380 Climbing Montreal Center
08:31PM 46.5000 -71.7667 199° South 170 196 15,500 900 Climbing Montreal Center
08:32PM 46.4500 -71.8500 229° Southwest 190 219 16,000 240 Climbing Montreal Center
08:33PM 46.4000 -71.9000 215° Southwest 220 253 16,000  Level Montreal Center
08:34PM 46.3500 -71.9500 215° Southwest 230 265 16,000  Level Montreal Center
08:35PM 46.3167 -72.0333 240° Southwest 240 276 16,000  Level Montreal Center
08:36PM 46.2667 -72.0833 215° Southwest 240 276 16,000  Level Montreal Center
08:37PM 46.2167 -72.1667 229° Southwest 240 276 16,000  Level Montreal Center
08:38PM 46.1667 -72.2167 215° Southwest 240 276 16,000  Level Montreal Center
08:39PM 46.1167 -72.2833 223° Southwest 240 276 16,000 -540 Level Montreal Center
08:40PM 46.0500 -72.3500 215° Southwest 250 288 15,000 -1,260 Descending Montreal Center
08:41PM 46.0000 -72.4167 223° Southwest 270 311 13,500 -1,500 Descending Montreal Center
08:42PM 45.9333 -72.5000 221° Southwest 270 311 12,000 -1,500 Descending Montreal Center
08:43PM 45.8833 -72.5667 223° Southwest 270 311 10,500 -1,500 Descending Montreal Center
08:44PM 45.8333 -72.6167 215° Southwest 260 299 9,000 -1,500 Descending Montreal Center
08:45PM 45.7833 -72.7000 229° Southwest 260 299 7,600 -1,260 Descending Montreal Center
08:46PM 45.7333 -72.7667 223° Southwest 250 288 6,500 -1,200 Descending Montreal Center
08:47PM 45.7333 -72.8667 270° West 250 288 5,300 -1,260 Descending Montreal Center
08:48PM 45.7167 -72.9667 257° West 240 276 4,000 -1,200 Descending Montreal Center
08:49PM 45.7000 -73.0667 257° West 240 276 3,000 -540 Descending Montreal Center
08:50PM 45.6833 -73.1333 250° West 210 242 3,000  Level Montreal Center
08:51PM 45.6333 -73.1833 215° Southwest 200 230 3,000 -120 Level Montreal Center
08:52PM 45.6167 -73.2667 254° West 200 230 2,800 -540 Descending Montreal Center
08:53PM 45.5833 -73.2833 199° South 140 161 2,000 -660 Descending Montreal Center
08:54PM 45.5667 -73.3333 245° Southwest 100 115 1,500 -600 Descending Montreal Center
08:55PM 45.5500 -73.3667 234° Southwest 100 115 800 -600 Descending Montreal Center
08:56PM 45.5333 -73.3833 215° Southwest 110 127 300 -540 Descending Montreal Center